Time;durP1;ratioP1;P1;durP2;ratioP2;P2;SDS_P1;SDS_P2;PMS_P1;PMS_P2;Temp;Humidity;BMP_temperature;BMP_pressure;BME280_temperature;BME280_humidity;BME280_pressure;Samples;Min_cycle;Max_cycle;Signal;HPM_P1;HPM_P2
2022/01/29 00:02:18;;;;;;;25.15;17.17;;;;;;;;;;5029627;28;20164;-78
2022/01/29 00:04:47;;;;;;;23.85;17.95;;;;;;;;;;4996417;28;20041;-77
2022/01/29 00:07:13;;;;;;;19.33;17.02;;;;;;;;;;5004433;28;20042;-78
2022/01/29 00:09:39;;;;;;;25.33;17.77;;;;;;;;;;5029566;28;20037;-78
2022/01/29 00:12:05;;;;;;;18.92;17.00;;;;;;;;;;5030194;28;20029;-77
2022/01/29 00:14:31;;;;;;;20.38;17.60;;;;;;;;;;5033900;28;20632;-78
2022/01/29 00:16:57;;;;;;;17.88;16.08;;;;;;;;;;5029867;28;20092;-79
2022/01/29 00:19:23;;;;;;;21.20;19.15;;;;;;;;;;5028689;28;20044;-78
2022/01/29 00:21:49;;;;;;;18.60;16.65;;;;;;;;;;5011881;28;20120;-78
2022/01/29 00:24:14;;;;;;;19.98;17.10;;;;;;;;;;5022197;28;20516;-78
2022/01/29 00:26:40;;;;;;;19.35;17.10;;;;;;;;;;5010453;28;20444;-79
2022/01/29 00:29:16;;;;;;;18.40;16.60;;;;;;;;;;4998125;28;20041;-76
2022/01/29 00:31:41;;;;;;;22.15;17.75;;;;;;;;;;5023280;28;20480;-77
2022/01/29 00:34:07;;;;;;;18.48;16.08;;;;;;;;;;5003174;28;20105;-76
2022/01/29 00:36:33;;;;;;;21.00;16.67;;;;;;;;;;5028537;28;20037;-77
2022/01/29 00:38:58;;;;;;;19.42;15.98;;;;;;;;;;5024655;28;20029;-78
2022/01/29 00:41:24;;;;;;;20.23;17.98;;;;;;;;;;5011838;28;20087;-76
2022/01/29 00:43:49;;;;;;;18.33;16.45;;;;;;;;;;5026378;28;20045;-76
2022/01/29 00:46:15;;;;;;;28.23;19.58;;;;;;;;;;5029749;28;20140;-78
2022/01/29 00:48:41;;;;;;;40.33;24.80;;;;;;;;;;5025473;28;20034;-79
2022/01/29 00:51:06;;;;;;;29.38;19.17;;;;;;;;;;5023044;28;20057;-76
2022/01/29 00:53:32;;;;;;;18.92;16.92;;;;;;;;;;5011282;28;20033;-77
2022/01/29 00:55:57;;;;;;;24.63;19.20;;;;;;;;;;5029428;28;20117;-79
2022/01/29 00:58:23;;;;;;;19.73;16.70;;;;;;;;;;5023041;28;20512;-78
2022/01/29 01:00:49;;;;;;;20.63;17.60;;;;;;;;;;5011506;28;20095;-78
2022/01/29 01:03:14;;;;;;;20.73;17.67;;;;;;;;;;5011931;28;20508;-78
2022/01/29 01:05:40;;;;;;;19.67;17.58;;;;;;;;;;4992234;28;20048;-78
2022/01/29 01:08:07;;;;;;;19.67;17.30;;;;;;;;;;5007610;28;20040;-78
2022/01/29 01:10:33;;;;;;;19.50;15.73;;;;;;;;;;5029096;28;20469;-77
2022/01/29 01:12:59;;;;;;;18.33;15.50;;;;;;;;;;5026450;28;20034;-78
2022/01/29 01:15:24;;;;;;;16.40;14.70;;;;;;;;;;5016399;28;20037;-79
2022/01/29 01:17:50;;;;;;;24.70;16.35;;;;;;;;;;5031234;28;20038;-78
2022/01/29 01:20:16;;;;;;;17.23;15.63;;;;;;;;;;5025423;28;20057;-78
2022/01/29 01:22:41;;;;;;;20.45;15.18;;;;;;;;;;5014904;28;20047;-78
2022/01/29 01:25:08;;;;;;;17.75;15.95;;;;;;;;;;5014103;28;20030;-78
2022/01/29 01:27:33;;;;;;;24.30;17.05;;;;;;;;;;5011184;28;20048;-78
2022/01/29 01:29:59;;;;;;;18.25;16.42;;;;;;;;;;5010361;28;20037;-77
2022/01/29 01:32:25;;;;;;;17.90;16.10;;;;;;;;;;5011493;28;20046;-79
2022/01/29 01:34:54;;;;;;;18.50;16.55;;;;;;;;;;5027548;28;20049;-78
2022/01/29 01:37:38;;;;;;;20.98;16.40;;;;;;;;;;5017866;28;20425;-78
2022/01/29 01:40:05;;;;;;;17.70;15.90;;;;;;;;;;5021068;28;20037;-78
2022/01/29 01:42:30;;;;;;;19.77;17.10;;;;;;;;;;5025307;28;20056;-78
2022/01/29 01:44:56;;;;;;;20.08;16.45;;;;;;;;;;5037804;28;20297;-79
2022/01/29 01:47:22;;;;;;;17.50;15.77;;;;;;;;;;5032031;28;20503;-78
2022/01/29 01:49:48;;;;;;;17.10;15.30;;;;;;;;;;5027058;28;20038;-78
2022/01/29 01:52:14;;;;;;;17.98;15.07;;;;;;;;;;5012349;28;20042;-78
2022/01/29 01:54:42;;;;;;;18.85;16.85;;;;;;;;;;5029602;28;20037;-78
2022/01/29 01:57:08;;;;;;;19.73;15.68;;;;;;;;;;5010572;28;20041;-78
2022/01/29 01:59:34;;;;;;;18.38;16.05;;;;;;;;;;5030066;28;20116;-78
2022/01/29 02:02:00;;;;;;;20.77;15.90;;;;;;;;;;5024696;28;20037;-76
2022/01/29 02:04:26;;;;;;;19.33;17.10;;;;;;;;;;5026326;28;20037;-77
2022/01/29 02:06:53;;;;;;;19.13;17.27;;;;;;;;;;5014589;28;20030;-77
2022/01/29 02:09:24;;;;;;;17.13;15.38;;;;;;;;;;5016317;28;20045;-78
2022/01/29 02:11:52;;;;;;;16.58;14.90;;;;;;;;;;5028317;28;20033;-78
2022/01/29 02:14:19;;;;;;;20.30;15.45;;;;;;;;;;5015426;28;20040;-77
2022/01/29 02:16:45;;;;;;;15.50;14.10;;;;;;;;;;4999356;28;20046;-77
2022/01/29 02:19:11;;;;;;;15.13;13.93;;;;;;;;;;5026435;28;20531;-77
2022/01/29 02:21:37;;;;;;;14.90;13.48;;;;;;;;;;5017797;28;20038;-78
2022/01/29 02:24:04;;;;;;;15.73;14.32;;;;;;;;;;5010757;28;20091;-77
2022/01/29 02:26:29;;;;;;;15.25;13.30;;;;;;;;;;5020540;28;20049;-78
2022/01/29 02:28:55;;;;;;;14.65;13.43;;;;;;;;;;5027893;28;20049;-77
2022/01/29 02:31:21;;;;;;;14.95;13.50;;;;;;;;;;4995777;28;20083;-78
2022/01/29 02:33:47;;;;;;;16.05;14.30;;;;;;;;;;5037864;28;20136;-77
2022/01/29 02:36:13;;;;;;;14.55;13.07;;;;;;;;;;5027480;28;20128;-78
2022/01/29 02:38:38;;;;;;;14.38;13.07;;;;;;;;;;5021793;28;20756;-78
2022/01/29 02:41:06;;;;;;;17.83;14.07;;;;;;;;;;5012434;28;20030;-77
2022/01/29 02:43:44;;;;;;;15.32;13.75;;;;;;;;;;5031672;28;20037;-76
2022/01/29 02:48:43;;;;;;;13.88;12.52;;;;;;;;;;5010902;28;20057;-78
2022/01/29 02:51:09;;;;;;;16.23;13.50;;;;;;;;;;5024310;28;20033;-77
2022/01/29 02:53:34;;;;;;;15.32;13.95;;;;;;;;;;5015855;28;20044;-78
2022/01/29 02:56:00;;;;;;;14.75;13.57;;;;;;;;;;5025232;28;20064;-77
2022/01/29 02:58:26;;;;;;;14.73;13.40;;;;;;;;;;5016742;28;20037;-77
2022/01/29 03:00:52;;;;;;;14.93;13.45;;;;;;;;;;5031450;28;20069;-77
2022/01/29 03:03:18;;;;;;;14.45;13.30;;;;;;;;;;5023715;28;20109;-77
2022/01/29 03:05:43;;;;;;;15.15;13.68;;;;;;;;;;5012185;28;20046;-78
2022/01/29 03:08:09;;;;;;;14.43;13.23;;;;;;;;;;5013750;28;20041;-77
2022/01/29 03:10:35;;;;;;;15.13;13.73;;;;;;;;;;5013703;28;20033;-79
2022/01/29 03:13:00;;;;;;;14.60;13.40;;;;;;;;;;5023344;28;20129;-76
2022/01/29 03:15:26;;;;;;;15.02;13.80;;;;;;;;;;5004073;28;20049;-77
2022/01/29 03:17:52;;;;;;;14.90;13.40;;;;;;;;;;5029183;28;20044;-78
2022/01/29 03:20:17;;;;;;;15.43;13.35;;;;;;;;;;5005255;28;20065;-78
2022/01/29 03:22:43;;;;;;;15.32;13.82;;;;;;;;;;4997192;28;20061;-76
2022/01/29 03:25:09;;;;;;;14.82;13.50;;;;;;;;;;5022761;28;20026;-76
2022/01/29 03:27:34;;;;;;;15.63;14.00;;;;;;;;;;5019096;28;20056;-77
2022/01/29 03:30:01;;;;;;;14.32;13.10;;;;;;;;;;5026398;28;20033;-79
2022/01/29 03:32:27;;;;;;;15.00;13.80;;;;;;;;;;5045146;28;20666;-78
2022/01/29 03:34:52;;;;;;;14.98;13.57;;;;;;;;;;5000912;28;20084;-78
2022/01/29 03:37:18;;;;;;;16.30;13.82;;;;;;;;;;5006090;28;20033;-78
2022/01/29 03:39:45;;;;;;;15.82;14.13;;;;;;;;;;5012935;28;20087;-78
2022/01/29 03:42:13;;;;;;;14.25;12.88;;;;;;;;;;5028020;28;20076;-78
2022/01/29 03:44:39;;;;;;;14.73;13.32;;;;;;;;;;5014359;28;20045;-79
2022/01/29 03:47:05;;;;;;;13.85;12.70;;;;;;;;;;5027988;28;20050;-77
2022/01/29 03:49:30;;;;;;;14.35;13.15;;;;;;;;;;5045121;28;20073;-79
2022/01/29 03:51:56;;;;;;;14.73;13.40;;;;;;;;;;5005829;28;20030;-79
2022/01/29 03:54:22;;;;;;;15.00;13.70;;;;;;;;;;5013552;28;20037;-77
2022/01/29 03:56:47;;;;;;;14.57;13.27;;;;;;;;;;5029139;28;20038;-77
2022/01/29 03:59:13;;;;;;;14.45;13.25;;;;;;;;;;5032275;28;20037;-77
2022/01/29 04:01:39;;;;;;;14.40;13.20;;;;;;;;;;5022407;28;20026;-77
2022/01/29 04:04:04;;;;;;;15.02;13.38;;;;;;;;;;5017750;28;20057;-77
2022/01/29 04:06:31;;;;;;;15.20;13.95;;;;;;;;;;5015503;28;20678;-76
2022/01/29 04:08:57;;;;;;;15.85;14.30;;;;;;;;;;5002481;28;20038;-77
2022/01/29 04:11:24;;;;;;;15.80;14.10;;;;;;;;;;5030673;28;20112;-76
2022/01/29 04:13:50;;;;;;;15.38;13.80;;;;;;;;;;5029368;28;20065;-76
2022/01/29 04:16:17;;;;;;;14.98;13.75;;;;;;;;;;5027900;28;20072;-75
2022/01/29 04:18:43;;;;;;;14.63;13.43;;;;;;;;;;5002400;28;20039;-76
2022/01/29 04:21:09;;;;;;;14.52;13.13;;;;;;;;;;5024412;28;20117;-79
2022/01/29 04:23:35;;;;;;;13.85;12.75;;;;;;;;;;5020684;28;20084;-79
2022/01/29 04:26:04;;;;;;;13.98;12.82;;;;;;;;;;5031980;28;20448;-77
2022/01/29 04:28:36;;;;;;;13.60;12.60;;;;;;;;;;5027736;28;20095;-78
2022/01/29 04:31:08;;;;;;;14.68;13.20;;;;;;;;;;5028785;28;20097;-76
2022/01/29 04:33:33;;;;;;;13.55;12.55;;;;;;;;;;5026949;28;20068;-76
2022/01/29 04:36:01;;;;;;;13.77;12.68;;;;;;;;;;5021425;28;20042;-79
2022/01/29 04:38:28;;;;;;;14.48;13.00;;;;;;;;;;5027944;28;20079;-79
2022/01/29 04:40:56;;;;;;;14.02;12.90;;;;;;;;;;5033201;28;20041;-77
2022/01/29 04:43:22;;;;;;;13.48;12.32;;;;;;;;;;5032007;28;20060;-79
2022/01/29 04:45:47;;;;;;;14.80;13.27;;;;;;;;;;5017023;28;20048;-78
2022/01/29 04:48:14;;;;;;;14.50;13.15;;;;;;;;;;5014801;28;20037;-77
2022/01/29 04:50:40;;;;;;;13.48;12.27;;;;;;;;;;5025988;28;20038;-78
2022/01/29 04:53:05;;;;;;;14.93;13.40;;;;;;;;;;5015186;28;20038;-78
2022/01/29 04:55:32;;;;;;;13.95;12.63;;;;;;;;;;5021646;28;20071;-76
2022/01/29 04:57:58;;;;;;;13.00;11.98;;;;;;;;;;5032955;28;20396;-79
2022/01/29 05:00:23;;;;;;;13.60;12.43;;;;;;;;;;5014120;28;20048;-77
2022/01/29 05:02:51;;;;;;;13.80;12.75;;;;;;;;;;5018664;28;20030;-77
2022/01/29 05:05:17;;;;;;;14.23;12.85;;;;;;;;;;5030754;28;20120;-79
2022/01/29 05:07:42;;;;;;;13.70;12.70;;;;;;;;;;5032630;28;20080;-78
2022/01/29 05:10:08;;;;;;;13.73;12.52;;;;;;;;;;5026933;28;20033;-77
2022/01/29 05:12:52;;;;;;;14.40;12.82;;;;;;;;;;5027525;28;20037;-78
2022/01/29 05:15:28;;;;;;;14.35;12.70;;;;;;;;;;5032602;28;20064;-77
2022/01/29 05:49:12;;;;;;;13.13;12.02;;;;;;;;;;5026918;28;20053;-78
2022/01/29 05:51:37;;;;;;;14.55;13.27;;;;;;;;;;5018880;28;20026;-79
2022/01/29 05:54:03;;;;;;;14.45;13.07;;;;;;;;;;5026600;28;20038;-78
2022/01/29 05:56:30;;;;;;;14.90;13.38;;;;;;;;;;5032850;28;20523;-77
2022/01/29 05:58:57;;;;;;;15.13;13.73;;;;;;;;;;5025914;28;20038;-78
2022/01/29 06:01:22;;;;;;;15.90;14.30;;;;;;;;;;5021473;28;20061;-79
2022/01/29 06:03:48;;;;;;;17.08;15.27;;;;;;;;;;5014609;28;20451;-79
2022/01/29 06:06:14;;;;;;;16.15;14.50;;;;;;;;;;5025467;28;20436;-78
2022/01/29 06:08:40;;;;;;;19.52;15.55;;;;;;;;;;5018278;28;20481;-79
2022/01/29 06:11:06;;;;;;;16.60;15.10;;;;;;;;;;5030292;28;20560;-78
2022/01/29 06:13:31;;;;;;;18.95;15.30;;;;;;;;;;5032073;28;20040;-77
2022/01/29 06:15:57;;;;;;;17.38;15.45;;;;;;;;;;5036080;28;20092;-80
2022/01/29 06:18:24;;;;;;;17.27;15.55;;;;;;;;;;5017846;28;20116;-79
2022/01/29 06:20:56;;;;;;;19.58;17.00;;;;;;;;;;5027637;28;20041;-79
2022/01/29 06:23:33;;;;;;;19.38;17.35;;;;;;;;;;5026705;28;20052;-77
2022/01/29 06:26:01;;;;;;;17.83;15.93;;;;;;;;;;5020109;28;20069;-80
2022/01/29 06:28:27;;;;;;;23.02;17.83;;;;;;;;;;5029399;28;20048;-78
2022/01/29 06:30:53;;;;;;;19.35;17.30;;;;;;;;;;5029565;28;20034;-80
2022/01/29 06:33:18;;;;;;;20.23;17.33;;;;;;;;;;5034461;28;20116;-76
2022/01/29 06:35:45;;;;;;;19.40;17.30;;;;;;;;;;5023261;28;20064;-77
2022/01/29 06:38:13;;;;;;;24.55;17.85;;;;;;;;;;5012773;28;20045;-77
2022/01/29 06:40:39;;;;;;;22.85;17.45;;;;;;;;;;5033916;28;20634;-77
2022/01/29 06:43:07;;;;;;;21.23;17.85;;;;;;;;;;5034866;28;20516;-79
2022/01/29 06:45:34;;;;;;;22.60;18.08;;;;;;;;;;5023144;28;20503;-80
2022/01/29 06:48:00;;;;;;;24.05;18.42;;;;;;;;;;5034257;28;20145;-80
2022/01/29 06:50:27;;;;;;;25.10;19.00;;;;;;;;;;5012180;28;20077;-81
2022/01/29 06:52:53;;;;;;;21.55;19.20;;;;;;;;;;5020386;28;20099;-81
2022/01/29 06:55:20;;;;;;;24.40;19.02;;;;;;;;;;5032703;28;20116;-77
2022/01/29 06:57:46;;;;;;;23.63;19.17;;;;;;;;;;5035228;28;20038;-78
2022/01/29 07:00:12;;;;;;;23.15;19.58;;;;;;;;;;5036080;28;20045;-79
2022/01/29 07:02:38;;;;;;;26.73;19.73;;;;;;;;;;5026457;28;20033;-78
2022/01/29 07:05:05;;;;;;;25.20;20.85;;;;;;;;;;5026880;28;20060;-77
2022/01/29 07:07:30;;;;;;;24.98;20.45;;;;;;;;;;5036218;28;20049;-79
2022/01/29 07:09:56;;;;;;;26.00;21.25;;;;;;;;;;5032724;28;20393;-81
2022/01/29 07:12:23;;;;;;;30.00;21.77;;;;;;;;;;5024234;28;20477;-81
2022/01/29 07:14:49;;;;;;;25.70;21.05;;;;;;;;;;5035432;28;20095;-79
2022/01/29 07:17:17;;;;;;;28.50;22.65;;;;;;;;;;5033506;28;20047;-79
2022/01/29 07:19:44;;;;;;;26.40;20.75;;;;;;;;;;5028116;28;20040;-81
2022/01/29 07:22:10;;;;;;;28.42;21.85;;;;;;;;;;5013152;28;20041;-77
2022/01/29 07:24:37;;;;;;;29.92;22.27;;;;;;;;;;5010611;28;20041;-77
2022/01/29 07:27:04;;;;;;;26.08;21.80;;;;;;;;;;5015832;28;20060;-77
2022/01/29 07:29:29;;;;;;;31.00;22.75;;;;;;;;;;5026919;28;20047;-80
2022/01/29 07:31:56;;;;;;;29.02;23.60;;;;;;;;;;5033005;28;20512;-80
2022/01/29 07:34:23;;;;;;;30.48;22.80;;;;;;;;;;5034683;28;20124;-79
2022/01/29 07:36:50;;;;;;;30.63;21.83;;;;;;;;;;5029301;28;20534;-75
2022/01/29 07:39:15;;;;;;;27.60;20.95;;;;;;;;;;5027142;28;20052;-81
2022/01/29 07:41:41;;;;;;;26.65;22.13;;;;;;;;;;5035782;28;20033;-76
2022/01/29 07:44:07;;;;;;;22.92;20.33;;;;;;;;;;5036322;28;20484;-79
2022/01/29 07:46:32;;;;;;;22.10;18.27;;;;;;;;;;5032607;28;20148;-78
2022/01/29 07:48:58;;;;;;;25.77;18.35;;;;;;;;;;5030687;28;20037;-82
2022/01/29 07:51:24;;;;;;;20.10;18.15;;;;;;;;;;5009859;28;20029;-78
2022/01/29 07:53:49;;;;;;;15.70;14.30;;;;;;;;;;5027621;28;20041;-77
2022/01/29 07:56:15;;;;;;;15.55;14.15;;;;;;;;;;5044799;28;20047;-76
2022/01/29 07:58:40;;;;;;;16.55;15.05;;;;;;;;;;5040944;28;20040;-80
2022/01/29 08:01:06;;;;;;;16.63;15.07;;;;;;;;;;5035188;28;20089;-78
2022/01/29 08:03:31;;;;;;;15.43;13.93;;;;;;;;;;5038805;28;20048;-75
2022/01/29 08:05:57;;;;;;;15.18;13.65;;;;;;;;;;5036905;28;20037;-75
2022/01/29 08:08:23;;;;;;;14.15;12.85;;;;;;;;;;5025825;28;20060;-81
2022/01/29 08:10:49;;;;;;;14.10;12.77;;;;;;;;;;5028537;28;20085;-78
2022/01/29 08:13:14;;;;;;;13.45;12.15;;;;;;;;;;5028218;28;20033;-80
2022/01/29 08:15:40;;;;;;;12.95;11.82;;;;;;;;;;5017132;28;20041;-77
2022/01/29 08:18:05;;;;;;;12.63;11.60;;;;;;;;;;5027702;28;20095;-77
2022/01/29 08:20:32;;;;;;;14.82;13.38;;;;;;;;;;5029071;28;20123;-81
2022/01/29 08:22:58;;;;;;;13.60;12.38;;;;;;;;;;5018314;28;20504;-81
2022/01/29 08:25:24;;;;;;;12.93;11.93;;;;;;;;;;5038127;28;20029;-79
2022/01/29 08:27:49;;;;;;;11.73;10.82;;;;;;;;;;5012392;28;20466;-79
2022/01/29 08:30:15;;;;;;;12.98;11.93;;;;;;;;;;5034210;28;20064;-80
2022/01/29 08:32:42;;;;;;;11.95;10.95;;;;;;;;;;5034536;28;20045;-78
2022/01/29 08:35:09;;;;;;;17.35;12.60;;;;;;;;;;5033561;28;20417;-80
2022/01/29 08:37:35;;;;;;;12.15;11.23;;;;;;;;;;5024590;28;20044;-79
2022/01/29 08:40:00;;;;;;;12.48;11.57;;;;;;;;;;5033204;28;20033;-75
2022/01/29 08:42:26;;;;;;;13.07;12.07;;;;;;;;;;5029031;28;20033;-80
2022/01/29 08:44:52;;;;;;;12.88;11.88;;;;;;;;;;5008927;28;20072;-78
2022/01/29 08:47:17;;;;;;;12.75;11.70;;;;;;;;;;5034091;28;20089;-77
2022/01/29 08:49:43;;;;;;;13.02;11.68;;;;;;;;;;5017199;28;20035;-77
2022/01/29 08:52:08;;;;;;;12.48;11.45;;;;;;;;;;5005317;28;20059;-80
2022/01/29 08:54:34;;;;;;;12.43;11.48;;;;;;;;;;5020282;28;20049;-78
2022/01/29 08:56:59;;;;;;;13.20;12.10;;;;;;;;;;5032636;28;20029;-79
2022/01/29 08:59:25;;;;;;;13.43;12.43;;;;;;;;;;5032699;28;20542;-76
2022/01/29 09:01:51;;;;;;;13.13;11.85;;;;;;;;;;5023844;28;20120;-81
2022/01/29 09:04:16;;;;;;;13.02;11.75;;;;;;;;;;5034728;28;20033;-81
2022/01/29 09:06:42;;;;;;;14.35;12.95;;;;;;;;;;5033359;28;20492;-77
2022/01/29 09:09:08;;;;;;;14.27;12.95;;;;;;;;;;5012211;28;20543;-78
2022/01/29 09:11:34;;;;;;;13.85;12.55;;;;;;;;;;5034680;28;20065;-76
2022/01/29 09:13:59;;;;;;;13.15;12.15;;;;;;;;;;5034412;28;20048;-80
2022/01/29 09:16:25;;;;;;;13.55;12.35;;;;;;;;;;5034119;28;20096;-80
2022/01/29 09:18:51;;;;;;;13.35;12.27;;;;;;;;;;5039063;28;20090;-79
2022/01/29 09:21:16;;;;;;;12.85;11.82;;;;;;;;;;5023980;28;20038;-78
2022/01/29 09:23:42;;;;;;;13.65;12.35;;;;;;;;;;5020516;28;20038;-76
2022/01/29 09:26:08;;;;;;;13.75;12.52;;;;;;;;;;5025286;28;20063;-81
2022/01/29 09:28:33;;;;;;;13.38;12.18;;;;;;;;;;5028411;28;20041;-81
2022/01/29 09:30:59;;;;;;;14.40;13.20;;;;;;;;;;5034172;28;20580;-78
2022/01/29 09:33:25;;;;;;;14.25;13.00;;;;;;;;;;5034141;28;20038;-76
2022/01/29 09:35:50;;;;;;;13.55;12.45;;;;;;;;;;5021207;28;20034;-79
2022/01/29 09:38:16;;;;;;;12.52;11.63;;;;;;;;;;5003221;28;20037;-80
2022/01/29 09:40:43;;;;;;;13.55;12.35;;;;;;;;;;5009144;28;20037;-80
2022/01/29 09:43:10;;;;;;;13.82;12.43;;;;;;;;;;5033642;28;20040;-80
2022/01/29 09:45:37;;;;;;;12.55;11.55;;;;;;;;;;5033689;28;20041;-79
2022/01/29 09:48:04;;;;;;;14.73;13.43;;;;;;;;;;5018868;28;20033;-80
2022/01/29 09:50:35;;;;;;;13.68;12.57;;;;;;;;;;5012217;28;20045;-77
2022/01/29 09:53:02;;;;;;;13.10;12.10;;;;;;;;;;5017108;28;20061;-79
2022/01/29 09:55:29;;;;;;;13.45;12.25;;;;;;;;;;5026531;28;20108;-75
2022/01/29 09:57:56;;;;;;;13.82;12.50;;;;;;;;;;5023562;28;20040;-78
2022/01/29 10:00:22;;;;;;;13.13;12.13;;;;;;;;;;5005889;28;20431;-76
2022/01/29 10:03:09;;;;;;;13.18;12.18;;;;;;;;;;5033613;28;20124;-77
2022/01/29 10:05:37;;;;;;;13.82;12.65;;;;;;;;;;5032254;28;20056;-81
2022/01/29 10:08:03;;;;;;;15.18;13.98;;;;;;;;;;5016478;28;20038;-78
2022/01/29 10:10:29;;;;;;;14.13;13.00;;;;;;;;;;5033562;28;20068;-80
2022/01/29 10:12:54;;;;;;;14.00;12.90;;;;;;;;;;5032749;28;20064;-77
2022/01/29 10:15:23;;;;;;;13.90;12.80;;;;;;;;;;5025837;28;20037;-78
2022/01/29 10:17:51;;;;;;;13.55;12.52;;;;;;;;;;5031696;28;20041;-81
2022/01/29 10:20:17;;;;;;;14.02;12.82;;;;;;;;;;5024632;28;20033;-79
2022/01/29 10:22:57;;;;;;;14.35;13.02;;;;;;;;;;5016617;28;20147;-77
2022/01/29 10:25:26;;;;;;;14.52;13.23;;;;;;;;;;5022467;28;20049;-77
2022/01/29 10:28:17;;;;;;;13.32;12.43;;;;;;;;;;5027698;28;20072;-79
2022/01/29 10:30:49;;;;;;;15.18;13.63;;;;;;;;;;5030882;28;20034;-79
2022/01/29 10:33:17;;;;;;;15.30;14.10;;;;;;;;;;5028488;28;20045;-79
2022/01/29 10:35:45;;;;;;;13.93;12.88;;;;;;;;;;5016950;28;20041;-78
2022/01/29 10:38:10;;;;;;;15.38;14.10;;;;;;;;;;5027549;28;20465;-78
2022/01/29 10:40:38;;;;;;;13.48;12.50;;;;;;;;;;5013811;28;20030;-78
2022/01/29 10:43:05;;;;;;;13.90;12.88;;;;;;;;;;5027949;28;20121;-78
2022/01/29 10:45:36;;;;;;;14.85;13.45;;;;;;;;;;5029418;28;20041;-78
2022/01/29 10:48:04;;;;;;;14.20;13.00;;;;;;;;;;5023029;28;20041;-78
2022/01/29 10:50:31;;;;;;;15.02;13.68;;;;;;;;;;5014935;28;20045;-77
2022/01/29 10:52:56;;;;;;;15.15;13.93;;;;;;;;;;5007923;28;20495;-77
2022/01/29 10:55:22;;;;;;;15.38;13.77;;;;;;;;;;5024580;28;20037;-77
2022/01/29 10:57:49;;;;;;;14.85;13.73;;;;;;;;;;5019779;28;20038;-79
2022/01/29 11:00:20;;;;;;;15.40;14.00;;;;;;;;;;5028618;28;20084;-78
2022/01/29 11:02:47;;;;;;;14.23;12.82;;;;;;;;;;5030986;28;20116;-77
2022/01/29 11:05:14;;;;;;;14.30;13.15;;;;;;;;;;5028863;28;20053;-77
2022/01/29 11:07:42;;;;;;;14.80;13.55;;;;;;;;;;5024491;28;20041;-77
2022/01/29 11:10:09;;;;;;;14.93;13.65;;;;;;;;;;5033251;28;20044;-78
2022/01/29 11:12:38;;;;;;;14.30;12.90;;;;;;;;;;5029026;28;20049;-78
2022/01/29 11:15:05;;;;;;;13.70;12.32;;;;;;;;;;5027123;28;20543;-78
2022/01/29 11:17:31;;;;;;;14.98;13.77;;;;;;;;;;5030919;28;20079;-78
2022/01/29 11:19:58;;;;;;;16.17;14.57;;;;;;;;;;5026553;28;20034;-78
2022/01/29 11:22:33;;;;;;;14.63;13.32;;;;;;;;;;5018162;28;20111;-78
2022/01/29 11:25:23;;;;;;;15.30;13.75;;;;;;;;;;5035386;28;20493;-78
2022/01/29 11:28:18;;;;;;;14.27;12.98;;;;;;;;;;5032860;28;20471;-79
2022/01/29 11:30:46;;;;;;;13.10;12.10;;;;;;;;;;5015448;28;20026;-78
2022/01/29 11:33:11;;;;;;;15.07;12.65;;;;;;;;;;5031407;28;20033;-78
2022/01/29 11:35:55;;;;;;;12.85;11.85;;;;;;;;;;5030947;28;20118;-79
2022/01/29 11:38:32;;;;;;;12.60;11.43;;;;;;;;;;5027466;28;20045;-78
2022/01/29 11:40:58;;;;;;;13.43;12.32;;;;;;;;;;5027211;28;20112;-78
2022/01/29 11:43:25;;;;;;;13.10;12.10;;;;;;;;;;5033508;28;20114;-78
2022/01/29 11:46:07;;;;;;;13.20;12.20;;;;;;;;;;5019181;28;20037;-78
2022/01/29 11:48:36;;;;;;;12.57;11.68;;;;;;;;;;5034049;28;20657;-77
2022/01/29 11:51:05;;;;;;;12.50;11.57;;;;;;;;;;5023305;28;20039;-78
2022/01/29 11:53:46;;;;;;;12.88;11.88;;;;;;;;;;5015904;28;20497;-77
2022/01/29 11:56:28;;;;;;;12.30;11.32;;;;;;;;;;5026432;28;20639;-78
2022/01/29 11:59:27;;;;;;;12.90;11.75;;;;;;;;;;5017079;28;20026;-78
2022/01/29 12:01:59;;;;;;;12.10;11.10;;;;;;;;;;5031970;28;20041;-79
2022/01/29 12:04:48;;;;;;;11.98;11.02;;;;;;;;;;5031951;28;20040;-79
2022/01/29 12:09:47;;;;;;;12.10;11.13;;;;;;;;;;5032694;28;20041;-78
2022/01/29 12:12:19;;;;;;;11.82;11.00;;;;;;;;;;5032994;28;20044;-79
2022/01/29 12:14:49;;;;;;;11.10;10.30;;;;;;;;;;5027732;28;20615;-78
2022/01/29 12:17:46;;;;;;;10.88;10.15;;;;;;;;;;5023850;28;20038;-78
2022/01/29 12:20:15;;;;;;;10.25;9.52;;;;;;;;;;5019298;28;20049;-78
2022/01/29 12:22:41;;;;;;;10.82;10.10;;;;;;;;;;5015700;28;20765;-78
2022/01/29 12:25:09;;;;;;;11.63;10.63;;;;;;;;;;5024628;28;20129;-78
2022/01/29 12:27:56;;;;;;;11.23;10.43;;;;;;;;;;5023641;28;20053;-78
2022/01/29 12:30:24;;;;;;;11.60;10.80;;;;;;;;;;5020843;28;20033;-78
2022/01/29 12:33:17;;;;;;;10.65;9.90;;;;;;;;;;5036673;28;20401;-78
2022/01/29 12:35:46;;;;;;;11.38;10.57;;;;;;;;;;4999035;28;20060;-78
2022/01/29 12:38:15;;;;;;;11.45;10.65;;;;;;;;;;5028286;28;20099;-77
2022/01/29 12:41:09;;;;;;;11.52;10.63;;;;;;;;;;5033641;28;20092;-78
2022/01/29 12:43:58;;;;;;;11.80;10.95;;;;;;;;;;5035535;28;20058;-78
2022/01/29 12:46:26;;;;;;;11.10;10.32;;;;;;;;;;5029851;28;20036;-78
2022/01/29 12:49:11;;;;;;;11.48;10.77;;;;;;;;;;5027898;28;20096;-79
2022/01/29 12:51:48;;;;;;;11.93;11.02;;;;;;;;;;5005274;28;20053;-78
2022/01/29 12:54:14;;;;;;;11.35;10.50;;;;;;;;;;5025318;28;20044;-78
2022/01/29 12:56:40;;;;;;;11.10;10.27;;;;;;;;;;5010684;28;20042;-78
2022/01/29 12:59:09;;;;;;;11.15;10.00;;;;;;;;;;5022052;28;20037;-79
2022/01/29 13:01:36;;;;;;;10.85;10.02;;;;;;;;;;5029675;28;20377;-78
2022/01/29 13:04:16;;;;;;;11.52;10.63;;;;;;;;;;5034263;28;20416;-78
2022/01/29 13:06:42;;;;;;;11.35;10.55;;;;;;;;;;5029152;28;20038;-79
2022/01/29 13:09:24;;;;;;;10.80;10.10;;;;;;;;;;5019732;28;20041;-78
2022/01/29 13:12:01;;;;;;;11.15;10.25;;;;;;;;;;5030006;28;20048;-78
2022/01/29 13:14:28;;;;;;;10.27;9.57;;;;;;;;;;5029484;28;20124;-78
2022/01/29 13:16:57;;;;;;;10.80;9.90;;;;;;;;;;5025297;28;20105;-78
2022/01/29 13:19:25;;;;;;;10.70;9.90;;;;;;;;;;5048647;28;20041;-78
2022/01/29 13:21:56;;;;;;;10.77;10.07;;;;;;;;;;5016967;28;20072;-78
2022/01/29 13:24:33;;;;;;;10.95;10.10;;;;;;;;;;5025980;28;20083;-78
2022/01/29 13:27:10;;;;;;;10.68;10.05;;;;;;;;;;5026764;28;20045;-77
2022/01/29 13:29:45;;;;;;;10.85;9.82;;;;;;;;;;5048018;28;20378;-79
2022/01/29 13:32:25;;;;;;;11.27;10.48;;;;;;;;;;5025372;28;20052;-78
2022/01/29 13:34:51;;;;;;;11.25;10.55;;;;;;;;;;5022465;28;20085;-79
2022/01/29 13:37:34;;;;;;;11.30;10.35;;;;;;;;;;5034690;28;20052;-79
2022/01/29 13:40:03;;;;;;;10.45;9.75;;;;;;;;;;5026731;28;20100;-79
2022/01/29 13:42:32;;;;;;;10.93;10.13;;;;;;;;;;5028275;28;20088;-78
2022/01/29 13:45:12;;;;;;;10.80;10.00;;;;;;;;;;5029362;28;20044;-78
2022/01/29 13:48:00;;;;;;;;;;;;;;;;;;5037060;28;20899;-79
2022/01/29 13:50:43;;;;;;;10.80;10.00;;;;;;;;;;5011542;28;19976;-78
2022/01/29 13:53:15;;;;;;;14.30;12.93;;;;;;;;;;5016924;28;20037;-78
2022/01/29 13:56:10;;;;;;;11.10;10.30;;;;;;;;;;5029985;28;20045;-78
2022/01/29 13:59:05;;;;;;;11.15;10.35;;;;;;;;;;5032463;28;20030;-78
2022/01/29 14:01:38;;;;;;;11.75;10.73;;;;;;;;;;5023967;28;20052;-77
2022/01/29 14:04:20;;;;;;;11.60;10.80;;;;;;;;;;5046838;28;20037;-78
2022/01/29 14:07:16;;;;;;;10.80;10.02;;;;;;;;;;5044673;28;20119;-77
2022/01/29 14:09:52;;;;;;;11.75;10.95;;;;;;;;;;5034253;28;20037;-79
2022/01/29 14:12:29;;;;;;;10.95;10.13;;;;;;;;;;5034120;28;20556;-79
2022/01/29 14:14:57;;;;;;;11.52;10.68;;;;;;;;;;5019213;28;20079;-78
2022/01/29 14:17:27;;;;;;;10.90;10.10;;;;;;;;;;5035311;28;20037;-79
2022/01/29 14:19:56;;;;;;;11.55;10.45;;;;;;;;;;5030622;28;20045;-79
2022/01/29 14:22:24;;;;;;;11.43;10.73;;;;;;;;;;5025083;28;20037;-79
2022/01/29 14:24:50;;;;;;;11.60;10.80;;;;;;;;;;5028545;28;20566;-78
2022/01/29 14:27:15;;;;;;;11.02;10.32;;;;;;;;;;5034034;28;20037;-79
2022/01/29 14:29:43;;;;;;;11.50;10.57;;;;;;;;;;5017483;28;20033;-78
2022/01/29 14:32:10;;;;;;;11.52;10.60;;;;;;;;;;5031109;28;20073;-79
2022/01/29 14:34:36;;;;;;;11.35;10.57;;;;;;;;;;5030930;28;20038;-79
2022/01/29 14:37:02;;;;;;;11.63;10.85;;;;;;;;;;5031888;28;20639;-78
2022/01/29 14:39:29;;;;;;;10.98;10.27;;;;;;;;;;5034965;28;20041;-78
2022/01/29 14:41:56;;;;;;;11.05;10.40;;;;;;;;;;5029702;28;20040;-79
2022/01/29 14:44:23;;;;;;;10.93;10.20;;;;;;;;;;5035466;28;20037;-79
2022/01/29 14:46:49;;;;;;;11.00;10.20;;;;;;;;;;5032618;28;20400;-78
2022/01/29 14:49:16;;;;;;;11.90;10.98;;;;;;;;;;5009240;28;20030;-78
2022/01/29 14:51:44;;;;;;;11.20;10.50;;;;;;;;;;5016947;28;20036;-78
2022/01/29 14:54:11;;;;;;;11.93;11.13;;;;;;;;;;5023741;28;20747;-78
2022/01/29 14:56:37;;;;;;;10.82;10.13;;;;;;;;;;5025760;28;20041;-78
2022/01/29 14:59:04;;;;;;;11.50;10.73;;;;;;;;;;5033877;28;20768;-78
2022/01/29 15:01:30;;;;;;;11.52;10.63;;;;;;;;;;5035447;28;20508;-78
2022/01/29 15:03:56;;;;;;;11.30;10.45;;;;;;;;;;5029353;28;20038;-78